sensor_id;sensor_type;location;lat;lon;timestamp;pressure;altitude;pressure_sealevel;temperature;humidity
78014;BME280;67222;50.182;8.734;2023-09-19T04:32:38;100112.78;;;16.13;92.94
78014;BME280;67222;50.182;8.734;2023-09-19T04:35:10;100118.16;;;16.13;93.00
78014;BME280;67222;50.182;8.734;2023-09-19T04:37:39;100130.75;;;16.07;90.35
78014;BME280;67222;50.182;8.734;2023-09-19T04:40:09;100122.72;;;16.12;89.45
78014;BME280;67222;50.182;8.734;2023-09-19T04:42:40;100114.41;;;16.14;87.83
78014;BME280;67222;50.182;8.734;2023-09-19T04:45:07;100114.09;;;16.10;89.31
78014;BME280;67222;50.182;8.734;2023-09-19T04:47:33;100123.16;;;16.04;89.38
78014;BME280;67222;50.182;8.734;2023-09-19T04:49:58;100128.22;;;16.00;88.91
78014;BME280;67222;50.182;8.734;2023-09-19T04:52:24;100126.19;;;15.91;87.65
78014;BME280;67222;50.182;8.734;2023-09-19T04:54:50;100134.81;;;15.93;87.93
78014;BME280;67222;50.182;8.734;2023-09-19T04:57:15;100123.75;;;15.89;87.97
78014;BME280;67222;50.182;8.734;2023-09-19T04:59:41;100136.13;;;15.90;87.71
78014;BME280;67222;50.182;8.734;2023-09-19T05:02:06;100136.78;;;15.97;87.05
78014;BME280;67222;50.182;8.734;2023-09-19T05:04:33;100133.75;;;15.94;86.85
78014;BME280;67222;50.182;8.734;2023-09-19T05:06:58;100133.69;;;15.89;86.95
78014;BME280;67222;50.182;8.734;2023-09-19T05:09:23;100143.88;;;15.87;86.94
78014;BME280;67222;50.182;8.734;2023-09-19T05:11:50;100142.31;;;15.91;86.94
78014;BME280;67222;50.182;8.734;2023-09-19T05:14:16;100143.38;;;15.90;87.00
78014;BME280;67222;50.182;8.734;2023-09-19T05:16:41;100140.78;;;15.95;86.74
78014;BME280;67222;50.182;8.734;2023-09-19T05:19:07;100152.03;;;15.92;87.60
78014;BME280;67222;50.182;8.734;2023-09-19T05:21:36;100149.75;;;15.84;87.75
78014;BME280;67222;50.182;8.734;2023-09-19T05:24:07;100147.78;;;15.79;87.75
78014;BME280;67222;50.182;8.734;2023-09-19T05:26:32;100146.25;;;15.83;88.19
78014;BME280;67222;50.182;8.734;2023-09-19T05:28:58;100146.66;;;15.92;86.43
78014;BME280;67222;50.182;8.734;2023-09-19T05:31:23;100143.06;;;15.86;86.80
78014;BME280;67222;50.182;8.734;2023-09-19T05:33:49;100148.84;;;15.78;87.25
78014;BME280;67222;50.182;8.734;2023-09-19T05:36:15;100154.22;;;15.78;87.63
78014;BME280;67222;50.182;8.734;2023-09-19T05:38:42;100155.28;;;15.77;87.49
78014;BME280;67222;50.182;8.734;2023-09-19T05:41:08;100160.81;;;15.70;86.90
78014;BME280;67222;50.182;8.734;2023-09-19T05:43:35;100159.34;;;15.80;88.12
78014;BME280;67222;50.182;8.734;2023-09-19T05:46:02;100161.31;;;15.84;87.64
78014;BME280;67222;50.182;8.734;2023-09-19T05:48:28;100171.03;;;15.85;86.88
78014;BME280;67222;50.182;8.734;2023-09-19T05:50:53;100165.72;;;15.90;86.29
78014;BME280;67222;50.182;8.734;2023-09-19T05:53:18;100172.16;;;15.89;86.81
78014;BME280;67222;50.182;8.734;2023-09-19T05:55:44;100173.53;;;15.92;87.13
78014;BME280;67222;50.182;8.734;2023-09-19T05:58:10;100186.97;;;15.92;85.41
78014;BME280;67222;50.182;8.734;2023-09-19T06:00:38;100186.16;;;15.91;85.79
78014;BME280;67222;50.182;8.734;2023-09-19T06:03:04;100173.28;;;15.93;85.81
78014;BME280;67222;50.182;8.734;2023-09-19T06:05:29;100181.34;;;15.93;86.44
78014;BME280;67222;50.182;8.734;2023-09-19T06:07:58;100181.59;;;15.92;86.32
78014;BME280;67222;50.182;8.734;2023-09-19T06:10:25;100184.22;;;15.87;86.07
78014;BME280;67222;50.182;8.734;2023-09-19T06:12:51;100189.09;;;15.90;86.08
78014;BME280;67222;50.182;8.734;2023-09-19T06:15:16;100180.47;;;15.88;85.04
78014;BME280;67222;50.182;8.734;2023-09-19T06:17:47;100182.66;;;15.91;84.66
78014;BME280;67222;50.182;8.734;2023-09-19T06:20:13;100181.34;;;15.93;83.98
78014;BME280;67222;50.182;8.734;2023-09-19T06:22:41;100186.34;;;15.85;84.65
78014;BME280;67222;50.182;8.734;2023-09-19T06:25:07;100200.34;;;15.87;84.78
78014;BME280;67222;50.182;8.734;2023-09-19T06:27:32;100198.22;;;15.89;84.54
78014;BME280;67222;50.182;8.734;2023-09-19T06:29:58;100203.13;;;15.92;85.26
78014;BME280;67222;50.182;8.734;2023-09-19T06:32:29;100207.50;;;15.98;85.32
78014;BME280;67222;50.182;8.734;2023-09-19T06:34:54;100213.47;;;16.00;85.51
78014;BME280;67222;50.182;8.734;2023-09-19T06:37:20;100216.31;;;16.10;84.44
78014;BME280;67222;50.182;8.734;2023-09-19T06:39:46;100228.88;;;16.21;83.43
78014;BME280;67222;50.182;8.734;2023-09-19T06:42:15;100220.25;;;16.19;84.38
78014;BME280;67222;50.182;8.734;2023-09-19T06:44:42;100229.44;;;16.23;84.30
78014;BME280;67222;50.182;8.734;2023-09-19T06:47:08;100239.66;;;16.21;84.24
78014;BME280;67222;50.182;8.734;2023-09-19T06:49:33;100245.53;;;16.18;83.69
78014;BME280;67222;50.182;8.734;2023-09-19T06:51:59;100245.03;;;16.21;84.28
78014;BME280;67222;50.182;8.734;2023-09-19T06:54:24;100243.84;;;16.34;85.32
78014;BME280;67222;50.182;8.734;2023-09-19T06:56:49;100240.44;;;16.39;85.17
78014;BME280;67222;50.182;8.734;2023-09-19T06:59:14;100244.53;;;16.41;85.35
78014;BME280;67222;50.182;8.734;2023-09-19T07:01:40;100244.09;;;16.49;83.36
78014;BME280;67222;50.182;8.734;2023-09-19T07:04:06;100244.66;;;16.51;83.37
78014;BME280;67222;50.182;8.734;2023-09-19T07:06:31;100260.16;;;16.61;81.93
78014;BME280;67222;50.182;8.734;2023-09-19T07:08:57;100265.38;;;16.51;82.17
78014;BME280;67222;50.182;8.734;2023-09-19T07:11:22;100268.22;;;16.61;82.74
78014;BME280;67222;50.182;8.734;2023-09-19T07:13:48;100276.88;;;16.63;83.23
78014;BME280;67222;50.182;8.734;2023-09-19T07:16:14;100281.94;;;16.59;81.89
78014;BME280;67222;50.182;8.734;2023-09-19T07:18:52;100281.63;;;16.56;82.62
78014;BME280;67222;50.182;8.734;2023-09-19T07:21:18;100286.00;;;16.62;82.75
78014;BME280;67222;50.182;8.734;2023-09-19T07:23:43;100290.50;;;16.56;82.04
78014;BME280;67222;50.182;8.734;2023-09-19T07:26:08;100292.59;;;16.54;82.08
78014;BME280;67222;50.182;8.734;2023-09-19T07:28:33;100292.97;;;16.58;82.18
78014;BME280;67222;50.182;8.734;2023-09-19T07:31:04;100293.47;;;16.55;81.99
78014;BME280;67222;50.182;8.734;2023-09-19T07:33:30;100307.06;;;16.65;82.16
78014;BME280;67222;50.182;8.734;2023-09-19T07:35:56;100311.16;;;16.68;81.23
78014;BME280;67222;50.182;8.734;2023-09-19T07:38:21;100310.50;;;16.77;81.37
78014;BME280;67222;50.182;8.734;2023-09-19T07:40:47;100312.38;;;16.77;81.16
78014;BME280;67222;50.182;8.734;2023-09-19T07:43:13;100317.91;;;16.70;80.32
78014;BME280;67222;50.182;8.734;2023-09-19T07:45:38;100316.03;;;16.71;81.45
78014;BME280;67222;50.182;8.734;2023-09-19T07:48:04;100319.72;;;16.81;79.31
78014;BME280;67222;50.182;8.734;2023-09-19T07:50:33;100318.84;;;16.76;77.59
78014;BME280;67222;50.182;8.734;2023-09-19T07:53:01;100328.19;;;16.73;78.18
78014;BME280;67222;50.182;8.734;2023-09-19T07:55:29;100323.88;;;16.72;76.91
78014;BME280;67222;50.182;8.734;2023-09-19T07:57:55;100314.50;;;16.75;77.86
78014;BME280;67222;50.182;8.734;2023-09-19T08:00:20;100326.97;;;16.81;78.06
78014;BME280;67222;50.182;8.734;2023-09-19T08:02:46;100327.53;;;16.66;77.34
78014;BME280;67222;50.182;8.734;2023-09-19T08:05:13;100332.06;;;16.77;77.92
78014;BME280;67222;50.182;8.734;2023-09-19T08:07:43;100333.44;;;16.80;78.43
78014;BME280;67222;50.182;8.734;2023-09-19T08:10:09;100330.25;;;16.83;76.77
78014;BME280;67222;50.182;8.734;2023-09-19T08:12:41;100324.19;;;16.92;76.26
78014;BME280;67222;50.182;8.734;2023-09-19T08:15:16;100320.81;;;17.02;76.78
78014;BME280;67222;50.182;8.734;2023-09-19T08:17:42;100335.28;;;16.96;76.53
78014;BME280;67222;50.182;8.734;2023-09-19T08:20:09;100330.13;;;17.11;75.74
78014;BME280;67222;50.182;8.734;2023-09-19T08:22:42;100335.56;;;17.16;74.30
78014;BME280;67222;50.182;8.734;2023-09-19T08:25:08;100338.50;;;17.15;72.82
78014;BME280;67222;50.182;8.734;2023-09-19T08:27:34;100339.00;;;17.12;72.67
78014;BME280;67222;50.182;8.734;2023-09-19T08:30:01;100344.31;;;17.07;72.41
78014;BME280;67222;50.182;8.734;2023-09-19T08:32:28;100344.69;;;16.93;72.64
78014;BME280;67222;50.182;8.734;2023-09-19T08:34:53;100359.69;;;16.89;72.82
78014;BME280;67222;50.182;8.734;2023-09-19T08:37:19;100349.72;;;16.90;72.57
78014;BME280;67222;50.182;8.734;2023-09-19T08:39:44;100350.19;;;17.04;71.68
78014;BME280;67222;50.182;8.734;2023-09-19T08:42:10;100363.25;;;17.12;70.77
78014;BME280;67222;50.182;8.734;2023-09-19T08:44:37;100356.25;;;17.11;70.59
78014;BME280;67222;50.182;8.734;2023-09-19T08:47:13;100349.00;;;16.94;70.94
78014;BME280;67222;50.182;8.734;2023-09-19T08:49:53;100350.25;;;17.09;70.71
78014;BME280;67222;50.182;8.734;2023-09-19T08:52:27;100356.56;;;17.14;69.81
78014;BME280;67222;50.182;8.734;2023-09-19T08:54:58;100346.47;;;17.26;68.53
78014;BME280;67222;50.182;8.734;2023-09-19T08:57:28;100350.66;;;17.17;66.92
78014;BME280;67222;50.182;8.734;2023-09-19T08:59:55;100343.84;;;17.32;68.10
78014;BME280;67222;50.182;8.734;2023-09-19T09:02:22;100349.56;;;17.35;67.03
78014;BME280;67222;50.182;8.734;2023-09-19T09:04:49;100348.25;;;17.38;65.97
78014;BME280;67222;50.182;8.734;2023-09-19T09:07:16;100350.16;;;17.42;65.92
78014;BME280;67222;50.182;8.734;2023-09-19T09:09:44;100351.88;;;17.48;65.61
78014;BME280;67222;50.182;8.734;2023-09-19T09:12:14;100350.41;;;17.63;65.60
78014;BME280;67222;50.182;8.734;2023-09-19T09:14:44;100352.16;;;17.69;64.60
78014;BME280;67222;50.182;8.734;2023-09-19T09:17:11;100341.97;;;17.76;64.98
78014;BME280;67222;50.182;8.734;2023-09-19T09:19:37;100350.78;;;17.93;65.96
78014;BME280;67222;50.182;8.734;2023-09-19T09:22:10;100348.34;;;17.92;64.76
78014;BME280;67222;50.182;8.734;2023-09-19T09:24:36;100353.63;;;17.81;66.09
78014;BME280;67222;50.182;8.734;2023-09-19T09:27:07;100339.63;;;17.84;63.81
78014;BME280;67222;50.182;8.734;2023-09-19T09:32:25;100347.53;;;17.91;64.22
78014;BME280;67222;50.182;8.734;2023-09-19T09:34:56;100350.63;;;17.78;62.59
78014;BME280;67222;50.182;8.734;2023-09-19T09:37:22;100354.09;;;17.73;61.61
78014;BME280;67222;50.182;8.734;2023-09-19T09:39:55;100346.31;;;17.77;63.22
78014;BME280;67222;50.182;8.734;2023-09-19T09:42:37;100350.41;;;17.84;63.09
78014;BME280;67222;50.182;8.734;2023-09-19T09:45:15;100346.44;;;17.87;63.42
78014;BME280;67222;50.182;8.734;2023-09-19T09:47:42;100363.78;;;17.96;63.75
78014;BME280;67222;50.182;8.734;2023-09-19T09:50:07;100369.47;;;18.00;62.57
78014;BME280;67222;50.182;8.734;2023-09-19T09:52:45;100356.88;;;18.05;62.70
78014;BME280;67222;50.182;8.734;2023-09-19T09:55:11;100364.84;;;17.95;62.31
78014;BME280;67222;50.182;8.734;2023-09-19T09:57:37;100358.31;;;18.18;63.38
78014;BME280;67222;50.182;8.734;2023-09-19T10:00:06;100367.78;;;18.21;63.21
78014;BME280;67222;50.182;8.734;2023-09-19T10:02:38;100368.75;;;18.36;63.07
78014;BME280;67222;50.182;8.734;2023-09-19T10:05:21;100363.50;;;18.52;61.49
78014;BME280;67222;50.182;8.734;2023-09-19T10:07:52;100363.47;;;18.46;61.44
78014;BME280;67222;50.182;8.734;2023-09-19T10:10:37;100366.91;;;18.69;61.26
78014;BME280;67222;50.182;8.734;2023-09-19T10:13:07;100360.16;;;18.71;60.33
78014;BME280;67222;50.182;8.734;2023-09-19T10:15:37;100370.28;;;18.59;59.67
78014;BME280;67222;50.182;8.734;2023-09-19T10:18:07;100360.97;;;18.72;59.16
78014;BME280;67222;50.182;8.734;2023-09-19T10:20:36;100360.56;;;18.58;59.32
78014;BME280;67222;50.182;8.734;2023-09-19T10:23:12;100358.44;;;18.60;60.53
78014;BME280;67222;50.182;8.734;2023-09-19T10:25:42;100352.56;;;18.63;59.70
78014;BME280;67222;50.182;8.734;2023-09-19T10:28:10;100355.03;;;18.70;57.53
78014;BME280;67222;50.182;8.734;2023-09-19T10:30:45;100363.41;;;18.73;58.06
78014;BME280;67222;50.182;8.734;2023-09-19T10:33:13;100354.66;;;18.61;58.40
78014;BME280;67222;50.182;8.734;2023-09-19T10:35:45;100355.38;;;18.79;57.40
78014;BME280;67222;50.182;8.734;2023-09-19T10:38:13;100358.31;;;18.77;58.28
78014;BME280;67222;50.182;8.734;2023-09-19T10:40:39;100354.75;;;18.71;56.58
78014;BME280;67222;50.182;8.734;2023-09-19T10:43:17;100363.25;;;18.85;57.11
78014;BME280;67222;50.182;8.734;2023-09-19T10:45:46;100356.06;;;19.01;57.10
78014;BME280;67222;50.182;8.734;2023-09-19T10:48:14;100360.13;;;19.03;55.58
78014;BME280;67222;50.182;8.734;2023-09-19T10:53:12;100369.31;;;19.08;53.44
78014;BME280;67222;50.182;8.734;2023-09-19T10:55:39;100360.09;;;18.98;55.18
78014;BME280;67222;50.182;8.734;2023-09-19T10:58:05;100360.84;;;18.94;53.67
78014;BME280;67222;50.182;8.734;2023-09-19T11:00:58;100359.28;;;18.98;54.96
78014;BME280;67222;50.182;8.734;2023-09-19T11:04:20;100368.28;;;19.14;55.67
78014;BME280;67222;50.182;8.734;2023-09-19T11:09:44;100366.16;;;19.21;52.87
78014;BME280;67222;50.182;8.734;2023-09-19T11:12:47;100356.66;;;19.13;51.70
78014;BME280;67222;50.182;8.734;2023-09-19T11:26:47;100339.78;;;18.96;55.10
78014;BME280;67222;50.182;8.734;2023-09-19T11:29:32;100335.59;;;19.15;52.96
78014;BME280;67222;50.182;8.734;2023-09-19T11:31:58;100333.00;;;19.35;53.72
78014;BME280;67222;50.182;8.734;2023-09-19T11:39:39;100321.25;;;19.87;49.97
78014;BME280;67222;50.182;8.734;2023-09-19T11:48:23;100306.13;;;19.96;49.58
78014;BME280;67222;50.182;8.734;2023-09-19T11:50:51;100312.94;;;20.30;50.01
78014;BME280;67222;50.182;8.734;2023-09-19T11:53:17;100324.88;;;20.49;49.44
78014;BME280;67222;50.182;8.734;2023-09-19T11:55:45;100306.72;;;20.34;48.45
78014;BME280;67222;50.182;8.734;2023-09-19T11:58:11;100306.19;;;20.47;48.72
78014;BME280;67222;50.182;8.734;2023-09-19T12:00:39;100315.59;;;20.96;49.69
78014;BME280;67222;50.182;8.734;2023-09-19T12:03:10;100326.34;;;21.31;46.80
78014;BME280;67222;50.182;8.734;2023-09-19T12:05:36;100316.34;;;21.27;46.73
78014;BME280;67222;50.182;8.734;2023-09-19T12:08:03;100319.63;;;21.08;46.39
78014;BME280;67222;50.182;8.734;2023-09-19T12:10:30;100312.06;;;20.95;47.74
78014;BME280;67222;50.182;8.734;2023-09-19T12:12:57;100311.66;;;21.48;48.95
78014;BME280;67222;50.182;8.734;2023-09-19T12:15:25;100305.00;;;22.47;45.52
78014;BME280;67222;50.182;8.734;2023-09-19T12:17:54;100299.59;;;23.24;42.30
78014;BME280;67222;50.182;8.734;2023-09-19T12:20:19;100316.13;;;23.75;40.75
78014;BME280;67222;50.182;8.734;2023-09-19T12:22:46;100294.72;;;23.88;39.62
78014;BME280;67222;50.182;8.734;2023-09-19T12:25:13;100298.25;;;23.88;40.32
78014;BME280;67222;50.182;8.734;2023-09-19T12:27:42;100299.28;;;24.43;40.97
78014;BME280;67222;50.182;8.734;2023-09-19T12:30:10;100299.50;;;24.93;36.50
78014;BME280;67222;50.182;8.734;2023-09-19T12:32:36;100288.59;;;24.47;37.64
78014;BME280;67222;50.182;8.734;2023-09-19T12:35:02;100287.34;;;23.69;38.72
78014;BME280;67222;50.182;8.734;2023-09-19T12:37:32;100294.47;;;24.54;42.30
78014;BME280;67222;50.182;8.734;2023-09-19T12:40:06;100280.34;;;26.74;35.37
78014;BME280;67222;50.182;8.734;2023-09-19T12:42:43;100273.06;;;28.18;32.85
78014;BME280;67222;50.182;8.734;2023-09-19T12:45:10;100272.50;;;29.06;32.25
78014;BME280;67222;50.182;8.734;2023-09-19T12:47:36;100272.28;;;27.83;31.06
78014;BME280;67222;50.182;8.734;2023-09-19T12:52:56;100275.44;;;29.93;29.66
78014;BME280;67222;50.182;8.734;2023-09-19T12:55:28;100276.75;;;29.24;28.77
78014;BME280;67222;50.182;8.734;2023-09-19T12:58:07;100254.22;;;29.39;29.26
78014;BME280;67222;50.182;8.734;2023-09-19T13:00:44;100257.53;;;28.48;30.78
78014;BME280;67222;50.182;8.734;2023-09-19T13:03:16;100278.25;;;28.83;29.12
78014;BME280;67222;50.182;8.734;2023-09-19T13:11:11;100260.25;;;30.16;28.62
78014;BME280;67222;50.182;8.734;2023-09-19T13:13:45;100259.56;;;30.19;29.36
78014;BME280;67222;50.182;8.734;2023-09-19T13:16:14;100271.28;;;29.24;29.31
78014;BME280;67222;50.182;8.734;2023-09-19T13:18:50;100246.75;;;30.68;26.50
78014;BME280;67222;50.182;8.734;2023-09-19T13:21:17;100254.63;;;29.71;28.12
78014;BME280;67222;50.182;8.734;2023-09-19T13:23:54;100251.19;;;29.95;26.53
78014;BME280;67222;50.182;8.734;2023-09-19T13:26:27;100278.34;;;28.49;29.27
78014;BME280;67222;50.182;8.734;2023-09-19T13:28:54;100258.50;;;28.52;28.08
78014;BME280;67222;50.182;8.734;2023-09-19T13:31:19;100249.25;;;28.65;29.89
78014;BME280;67222;50.182;8.734;2023-09-19T13:33:48;100253.03;;;29.19;28.36
78014;BME280;67222;50.182;8.734;2023-09-19T13:36:13;100250.38;;;27.74;29.06
78014;BME280;67222;50.182;8.734;2023-09-19T13:38:42;100249.38;;;27.53;30.41
78014;BME280;67222;50.182;8.734;2023-09-19T13:41:12;100260.03;;;26.97;30.83
78014;BME280;67222;50.182;8.734;2023-09-19T13:43:38;100260.72;;;25.96;33.51
78014;BME280;67222;50.182;8.734;2023-09-19T13:46:04;100269.78;;;24.78;34.50
78014;BME280;67222;50.182;8.734;2023-09-19T13:48:30;100261.09;;;24.30;38.41
78014;BME280;67222;50.182;8.734;2023-09-19T13:50:56;100245.56;;;24.11;36.14
78014;BME280;67222;50.182;8.734;2023-09-19T13:53:22;100251.75;;;23.98;36.39
78014;BME280;67222;50.182;8.734;2023-09-19T13:55:47;100249.66;;;24.28;37.34
78014;BME280;67222;50.182;8.734;2023-09-19T13:58:14;100244.38;;;24.50;36.64
78014;BME280;67222;50.182;8.734;2023-09-19T14:00:39;100248.75;;;25.33;35.41
78014;BME280;67222;50.182;8.734;2023-09-19T14:03:04;100254.50;;;24.63;35.46
78014;BME280;67222;50.182;8.734;2023-09-19T14:05:30;100238.00;;;26.09;34.61
78014;BME280;67222;50.182;8.734;2023-09-19T14:07:56;100237.72;;;27.30;32.02
78014;BME280;67222;50.182;8.734;2023-09-19T14:10:24;100236.63;;;27.48;32.44
78014;BME280;67222;50.182;8.734;2023-09-19T14:12:50;100231.78;;;26.79;32.98
78014;BME280;67222;50.182;8.734;2023-09-19T14:15:15;100234.06;;;26.86;33.03
78014;BME280;67222;50.182;8.734;2023-09-19T14:17:41;100224.16;;;26.59;34.39
78014;BME280;67222;50.182;8.734;2023-09-19T14:20:08;100228.28;;;25.81;35.47
78014;BME280;67222;50.182;8.734;2023-09-19T14:22:35;100220.84;;;25.36;35.15
78014;BME280;67222;50.182;8.734;2023-09-19T14:25:01;100231.97;;;24.99;36.26
78014;BME280;67222;50.182;8.734;2023-09-19T14:27:27;100226.63;;;23.88;37.34
78014;BME280;67222;50.182;8.734;2023-09-19T14:29:52;100214.50;;;23.00;38.71
78014;BME280;67222;50.182;8.734;2023-09-19T14:32:17;100231.84;;;22.56;40.42
78014;BME280;67222;50.182;8.734;2023-09-19T14:34:43;100220.00;;;22.18;40.15
78014;BME280;67222;50.182;8.734;2023-09-19T14:37:09;100217.44;;;22.31;41.03
78014;BME280;67222;50.182;8.734;2023-09-19T14:39:36;100213.75;;;22.17;40.53
78014;BME280;67222;50.182;8.734;2023-09-19T14:42:04;100214.94;;;22.01;41.19
78014;BME280;67222;50.182;8.734;2023-09-19T14:44:29;100207.53;;;21.77;40.20
78014;BME280;67222;50.182;8.734;2023-09-19T14:46:54;100200.16;;;21.44;42.08
78014;BME280;67222;50.182;8.734;2023-09-19T14:49:20;100206.25;;;21.26;42.67
78014;BME280;67222;50.182;8.734;2023-09-19T14:51:45;100208.94;;;21.26;42.36
78014;BME280;67222;50.182;8.734;2023-09-19T14:54:12;100212.31;;;20.92;42.80
78014;BME280;67222;50.182;8.734;2023-09-19T14:56:38;100220.75;;;20.85;42.01
78014;BME280;67222;50.182;8.734;2023-09-19T14:59:03;100216.19;;;20.71;43.03
78014;BME280;67222;50.182;8.734;2023-09-19T15:01:29;100217.78;;;20.82;43.40
78014;BME280;67222;50.182;8.734;2023-09-19T15:03:55;100221.84;;;20.84;43.49
78014;BME280;67222;50.182;8.734;2023-09-19T15:06:20;100212.59;;;20.91;44.63
78014;BME280;67222;50.182;8.734;2023-09-19T15:08:47;100214.78;;;20.89;44.81
78014;BME280;67222;50.182;8.734;2023-09-19T15:11:19;100204.78;;;20.79;43.26
78014;BME280;67222;50.182;8.734;2023-09-19T15:13:46;100201.88;;;20.65;44.25
78014;BME280;67222;50.182;8.734;2023-09-19T15:16:11;100222.19;;;20.68;43.15
78014;BME280;67222;50.182;8.734;2023-09-19T15:18:40;100211.06;;;20.59;44.83
78014;BME280;67222;50.182;8.734;2023-09-19T15:21:07;100206.25;;;20.46;44.65
78014;BME280;67222;50.182;8.734;2023-09-19T15:23:33;100199.47;;;20.48;44.31
78014;BME280;67222;50.182;8.734;2023-09-19T15:26:10;100210.81;;;20.40;45.17
78014;BME280;67222;50.182;8.734;2023-09-19T15:28:37;100204.06;;;20.33;45.42
78014;BME280;67222;50.182;8.734;2023-09-19T15:31:04;100200.53;;;20.42;46.33
78014;BME280;67222;50.182;8.734;2023-09-19T15:33:30;100201.91;;;20.50;46.15
78014;BME280;67222;50.182;8.734;2023-09-19T15:36:03;100190.78;;;20.36;45.95
78014;BME280;67222;50.182;8.734;2023-09-19T15:38:30;100195.41;;;20.41;47.42
78014;BME280;67222;50.182;8.734;2023-09-19T15:40:57;100195.13;;;20.47;47.12
78014;BME280;67222;50.182;8.734;2023-09-19T15:43:22;100195.66;;;20.39;49.51
78014;BME280;67222;50.182;8.734;2023-09-19T15:45:49;100192.94;;;20.39;47.21
78014;BME280;67222;50.182;8.734;2023-09-19T15:48:14;100185.91;;;20.43;47.26
78014;BME280;67222;50.182;8.734;2023-09-19T15:50:40;100188.66;;;20.18;49.16
78014;BME280;67222;50.182;8.734;2023-09-19T15:53:07;100191.91;;;20.20;47.95
78014;BME280;67222;50.182;8.734;2023-09-19T15:55:38;100188.63;;;20.23;49.82
78014;BME280;67222;50.182;8.734;2023-09-19T15:58:04;100186.19;;;20.21;50.20
78014;BME280;67222;50.182;8.734;2023-09-19T16:00:31;100185.13;;;20.17;48.58
78014;BME280;67222;50.182;8.734;2023-09-19T16:02:59;100179.72;;;20.17;50.20
78014;BME280;67222;50.182;8.734;2023-09-19T16:05:26;100183.22;;;20.23;48.83
78014;BME280;67222;50.182;8.734;2023-09-19T16:07:51;100182.97;;;20.19;49.70
78014;BME280;67222;50.182;8.734;2023-09-19T16:10:16;100177.56;;;20.14;49.39
78014;BME280;67222;50.182;8.734;2023-09-19T16:12:42;100185.66;;;20.19;51.14
78014;BME280;67222;50.182;8.734;2023-09-19T16:15:07;100178.88;;;20.22;50.65
78014;BME280;67222;50.182;8.734;2023-09-19T16:17:36;100174.31;;;20.17;51.09
78014;BME280;67222;50.182;8.734;2023-09-19T16:20:01;100180.53;;;20.03;52.09
78014;BME280;67222;50.182;8.734;2023-09-19T16:22:27;100172.41;;;20.18;49.83
78014;BME280;67222;50.182;8.734;2023-09-19T16:24:52;100170.00;;;20.11;49.26
78014;BME280;67222;50.182;8.734;2023-09-19T16:27:17;100164.84;;;20.10;49.62
78014;BME280;67222;50.182;8.734;2023-09-19T16:29:47;100166.47;;;20.11;50.21
78014;BME280;67222;50.182;8.734;2023-09-19T16:32:13;100166.75;;;19.99;51.75
78014;BME280;67222;50.182;8.734;2023-09-19T16:34:39;100169.72;;;19.98;51.47
78014;BME280;67222;50.182;8.734;2023-09-19T16:37:04;100174.31;;;19.87;52.78
78014;BME280;67222;50.182;8.734;2023-09-19T16:39:30;100169.75;;;19.92;52.57
78014;BME280;67222;50.182;8.734;2023-09-19T16:41:55;100173.22;;;19.88;52.25
78014;BME280;67222;50.182;8.734;2023-09-19T16:44:21;100167.28;;;19.86;51.08
78014;BME280;67222;50.182;8.734;2023-09-19T16:46:46;100154.31;;;19.78;52.16
78014;BME280;67222;50.182;8.734;2023-09-19T16:49:11;100154.59;;;19.71;53.25
78014;BME280;67222;50.182;8.734;2023-09-19T16:51:37;100158.34;;;19.65;53.70
78014;BME280;67222;50.182;8.734;2023-09-19T16:54:03;100156.75;;;19.64;54.48
78014;BME280;67222;50.182;8.734;2023-09-19T16:56:28;100151.81;;;19.51;53.91
78014;BME280;67222;50.182;8.734;2023-09-19T16:58:57;100163.44;;;19.51;54.85
78014;BME280;67222;50.182;8.734;2023-09-19T17:01:26;100162.97;;;19.54;54.15
78014;BME280;67222;50.182;8.734;2023-09-19T17:03:51;100157.00;;;19.52;54.47
78014;BME280;67222;50.182;8.734;2023-09-19T17:06:18;100152.09;;;19.49;54.72
78014;BME280;67222;50.182;8.734;2023-09-19T17:08:45;100158.31;;;19.34;55.69
78014;BME280;67222;50.182;8.734;2023-09-19T17:11:12;100155.34;;;19.36;55.83
78014;BME280;67222;50.182;8.734;2023-09-19T17:13:40;100163.19;;;19.38;56.21
78014;BME280;67222;50.182;8.734;2023-09-19T17:16:12;100162.91;;;19.44;54.62
78014;BME280;67222;50.182;8.734;2023-09-19T17:18:41;100166.16;;;19.41;55.60
78014;BME280;67222;50.182;8.734;2023-09-19T17:21:08;100167.47;;;19.28;56.71
78014;BME280;67222;50.182;8.734;2023-09-19T17:23:36;100166.66;;;19.28;55.30
78014;BME280;67222;50.182;8.734;2023-09-19T17:26:06;100171.00;;;19.29;55.40
78014;BME280;67222;50.182;8.734;2023-09-19T17:28:33;100171.81;;;19.24;55.82
78014;BME280;67222;50.182;8.734;2023-09-19T17:31:08;100175.31;;;19.25;56.13
78014;BME280;67222;50.182;8.734;2023-09-19T17:33:35;100178.28;;;19.23;56.81
78014;BME280;67222;50.182;8.734;2023-09-19T17:36:11;100182.34;;;19.26;56.79
78014;BME280;67222;50.182;8.734;2023-09-19T17:38:39;100182.34;;;19.26;57.95
78014;BME280;67222;50.182;8.734;2023-09-19T17:41:04;100189.91;;;19.29;55.54
78014;BME280;67222;50.182;8.734;2023-09-19T17:43:34;100187.47;;;19.27;57.06
78014;BME280;67222;50.182;8.734;2023-09-19T17:46:12;100182.88;;;19.23;57.81
78014;BME280;67222;50.182;8.734;2023-09-19T17:48:39;100183.97;;;19.27;57.45
78014;BME280;67222;50.182;8.734;2023-09-19T17:51:08;100193.97;;;19.21;58.12
78014;BME280;67222;50.182;8.734;2023-09-19T17:53:37;100193.44;;;19.19;59.02
78014;BME280;67222;50.182;8.734;2023-09-19T17:56:08;100190.19;;;19.22;57.87
78014;BME280;67222;50.182;8.734;2023-09-19T17:58:39;100192.06;;;19.27;57.84
78014;BME280;67222;50.182;8.734;2023-09-19T18:01:11;100190.47;;;19.31;57.98
78014;BME280;67222;50.182;8.734;2023-09-19T18:03:37;100196.97;;;19.35;57.20
78014;BME280;67222;50.182;8.734;2023-09-19T18:06:04;100194.00;;;19.36;57.78